Flight Track Log - Related Links

Times and Time Zones

All times are in EDT time to prevent confusion due to time zone crossing. See the WEW1540 flight status page for this flight to view local times or setup timezone preferences in your user account.

Time Position Orientation Groundspeed Altitude Reporting Facility
EDT Latitude Longitude Course Direction KTS MPH feet Rate Location/Type
Tue 07:09:16 PM 51.4167 -109.1167 142° Southeast 140 161 8,500  Level Winnipeg Center
Tue 07:10:16 PM 51.3833 -109.0667 137° Southeast 150 173 9,000 250 Climbing Winnipeg Center
Tue 07:11:16 PM 51.3500 -109.0167 137° Southeast 180 207 9,000 50 Level Winnipeg Center
Tue 07:12:16 PM 51.3000 -108.9667 148° Southeast 190 219 9,100 50 Climbing Winnipeg Center
Tue 07:13:16 PM 51.2500 -108.9333 157° South 180 207 9,100  Level Winnipeg Center
Tue 07:14:00 PM 51.1177 -108.6834 142° Southeast  Level Estimated
Tue 07:14:16 PM 51.2167 -108.8667 129° Southeast 200 230 9,100  Level Winnipeg Center
Tue 07:15:16 PM 51.1667 -108.8333 157° South 200 230 9,100  Level Winnipeg Center
Tue 07:16:16 PM 51.1167 -108.7667 140° Southeast 220 253 9,100  Level Winnipeg Center
Tue 07:17:16 PM 51.1000 -108.7000 112° Southeast 190 219 9,100  Level Winnipeg Center
Tue 07:18:16 PM 51.0500 -108.6667 157° South 200 230 9,100  Level Winnipeg Center
Tue 07:19:16 PM 51.0000 -108.6000 140° Southeast 200 230 9,100  Level Winnipeg Center
Tue 07:20:16 PM 50.9833 -108.5333 112° Southeast 190 219 9,100  Level Winnipeg Center
Tue 07:21:16 PM 50.9333 -108.5000 157° South 190 219 9,100  Level Winnipeg Center
Tue 07:22:16 PM 50.8833 -108.4500 148° Southeast 200 230 9,100  Level Winnipeg Center
Tue 07:25:19 PM 50.7500 -108.3167 148° Southeast 180 207 9,100  Level Winnipeg Center
Tue 07:26:43 PM 50.6667 -108.2667 159° South 200 230 9,100  Level Winnipeg Center
Tue 07:28:00 PM 50.6409 -108.1828 116° Southeast  Level FlightAware Approximate
Tue 07:35:00 PM 50.4013 -107.8437 144° Southeast  Level Estimated
Tue 07:36:00 PM 50.3666 -107.7963 139° Southeast  Level FlightAware Approximate
Tue 07:37:00 PM 50.3318 -107.7491 139° Southeast  Level FlightAware Approximate
Tue 07:38:00 PM 50.2970 -107.7018 139° Southeast  Level FlightAware Approximate
Tue 07:39:00 PM 50.2919 -107.6906 144° Southeast  Level Estimated
Tue 07:40:00 PM 50.2919 -107.6906 144° Southeast  Level Estimated
Tue 07:41:00 PM 50.2919 -107.6906 144° Southeast  Level Estimated
Tue 07:42:00 PM 50.2919 -107.6906 144° Southeast  Level Estimated
Tue 07:43:00 PM 50.2919 -107.6906 144° Southeast  Level Estimated
Tue 07:44:00 PM 50.2919 -107.6906 144° Southeast  Level Estimated
Tue 07:45:00 PM 50.2919 -107.6906 144° Southeast  Level Estimated
Tue 07:46:00 PM 50.2919 -107.6906 144° Southeast  Level Estimated
Tue 07:47:00 PM 50.2919 -107.6906 144° Southeast  Level Estimated
Tue 07:48:00 PM 50.2919 -107.6906 144° Southeast  Level Estimated

Login

Don't have an account? Register now (free) for customized features, flight alerts, and more!